sensor_id;sensor_type;location;lat;lon;timestamp;P1;durP1;ratioP1;P2;durP2;ratioP2
28547;SDS011;68292;49.600;8.746;2023-05-21T00:01:14;15.57;;;14.00;;
28547;SDS011;68292;49.600;8.746;2023-05-21T00:03:42;16.58;;;14.98;;
28547;SDS011;68292;49.600;8.746;2023-05-21T00:06:12;16.20;;;14.40;;
28547;SDS011;68292;49.600;8.746;2023-05-21T00:08:43;15.73;;;14.13;;
28547;SDS011;68292;49.600;8.746;2023-05-21T00:11:11;15.40;;;13.80;;
28547;SDS011;68292;49.600;8.746;2023-05-21T00:13:39;17.60;;;14.48;;
28547;SDS011;68292;49.600;8.746;2023-05-21T00:16:07;14.25;;;12.95;;
28547;SDS011;68292;49.600;8.746;2023-05-21T00:18:36;15.55;;;14.07;;
28547;SDS011;68292;49.600;8.746;2023-05-21T00:21:05;14.93;;;13.43;;
28547;SDS011;68292;49.600;8.746;2023-05-21T00:23:33;16.17;;;14.60;;
28547;SDS011;68292;49.600;8.746;2023-05-21T00:26:04;15.90;;;14.38;;
28547;SDS011;68292;49.600;8.746;2023-05-21T00:28:32;16.50;;;14.13;;
28547;SDS011;68292;49.600;8.746;2023-05-21T00:31:00;14.70;;;13.20;;
28547;SDS011;68292;49.600;8.746;2023-05-21T00:33:28;16.35;;;14.15;;
28547;SDS011;68292;49.600;8.746;2023-05-21T00:35:57;16.98;;;15.18;;
28547;SDS011;68292;49.600;8.746;2023-05-21T00:38:25;15.27;;;13.77;;
28547;SDS011;68292;49.600;8.746;2023-05-21T00:40:54;15.75;;;14.25;;
28547;SDS011;68292;49.600;8.746;2023-05-21T00:43:23;15.85;;;13.73;;
28547;SDS011;68292;49.600;8.746;2023-05-21T00:45:51;15.82;;;14.23;;
28547;SDS011;68292;49.600;8.746;2023-05-21T00:48:21;16.95;;;15.15;;
28547;SDS011;68292;49.600;8.746;2023-05-21T00:50:50;16.55;;;14.65;;
28547;SDS011;68292;49.600;8.746;2023-05-21T00:53:19;15.82;;;13.15;;
28547;SDS011;68292;49.600;8.746;2023-05-21T00:55:47;15.38;;;13.85;;
28547;SDS011;68292;49.600;8.746;2023-05-21T00:58:17;16.02;;;14.43;;
28547;SDS011;68292;49.600;8.746;2023-05-21T01:00:46;14.95;;;13.45;;
28547;SDS011;68292;49.600;8.746;2023-05-21T01:03:15;15.48;;;13.95;;
28547;SDS011;68292;49.600;8.746;2023-05-21T01:05:44;15.18;;;13.77;;
28547;SDS011;68292;49.600;8.746;2023-05-21T01:08:14;15.35;;;13.85;;
28547;SDS011;68292;49.600;8.746;2023-05-21T01:10:43;14.43;;;12.98;;
28547;SDS011;68292;49.600;8.746;2023-05-21T01:13:11;15.70;;;14.13;;
28547;SDS011;68292;49.600;8.746;2023-05-21T01:15:40;15.10;;;13.60;;
28547;SDS011;68292;49.600;8.746;2023-05-21T01:18:10;14.68;;;13.18;;
28547;SDS011;68292;49.600;8.746;2023-05-21T01:20:41;15.07;;;13.50;;
28547;SDS011;68292;49.600;8.746;2023-05-21T01:23:15;15.52;;;13.80;;
28547;SDS011;68292;49.600;8.746;2023-05-21T01:25:44;15.30;;;13.27;;
28547;SDS011;68292;49.600;8.746;2023-05-21T01:28:13;14.60;;;13.13;;
28547;SDS011;68292;49.600;8.746;2023-05-21T01:30:41;14.65;;;13.20;;
28547;SDS011;68292;49.600;8.746;2023-05-21T01:33:11;14.93;;;13.50;;
28547;SDS011;68292;49.600;8.746;2023-05-21T01:35:46;15.07;;;13.55;;
28547;SDS011;68292;49.600;8.746;2023-05-21T01:38:23;14.73;;;13.32;;
28547;SDS011;68292;49.600;8.746;2023-05-21T01:40:57;14.38;;;12.93;;
28547;SDS011;68292;49.600;8.746;2023-05-21T01:43:30;14.50;;;13.00;;
28547;SDS011;68292;49.600;8.746;2023-05-21T01:46:01;14.05;;;12.75;;
28547;SDS011;68292;49.600;8.746;2023-05-21T01:48:31;14.80;;;12.63;;
28547;SDS011;68292;49.600;8.746;2023-05-21T01:51:01;17.63;;;13.48;;
28547;SDS011;68292;49.600;8.746;2023-05-21T01:53:33;14.95;;;13.45;;
28547;SDS011;68292;49.600;8.746;2023-05-21T01:56:01;14.85;;;13.05;;
28547;SDS011;68292;49.600;8.746;2023-05-21T01:58:29;16.33;;;13.00;;
28547;SDS011;68292;49.600;8.746;2023-05-21T02:00:58;15.48;;;12.40;;
28547;SDS011;68292;49.600;8.746;2023-05-21T02:03:26;15.18;;;13.68;;
28547;SDS011;68292;49.600;8.746;2023-05-21T02:05:56;14.57;;;13.27;;
28547;SDS011;68292;49.600;8.746;2023-05-21T02:08:24;14.82;;;13.05;;
28547;SDS011;68292;49.600;8.746;2023-05-21T02:10:55;15.55;;;13.98;;
28547;SDS011;68292;49.600;8.746;2023-05-21T02:13:23;14.30;;;12.93;;
28547;SDS011;68292;49.600;8.746;2023-05-21T02:15:52;15.00;;;13.55;;
28547;SDS011;68292;49.600;8.746;2023-05-21T02:18:22;14.43;;;12.93;;
28547;SDS011;68292;49.600;8.746;2023-05-21T02:20:51;14.70;;;13.18;;
28547;SDS011;68292;49.600;8.746;2023-05-21T02:23:19;14.80;;;13.32;;
28547;SDS011;68292;49.600;8.746;2023-05-21T02:25:47;16.40;;;14.30;;
28547;SDS011;68292;49.600;8.746;2023-05-21T02:28:17;15.20;;;13.73;;
28547;SDS011;68292;49.600;8.746;2023-05-21T02:30:46;14.93;;;13.43;;
28547;SDS011;68292;49.600;8.746;2023-05-21T02:33:14;14.25;;;12.88;;
28547;SDS011;68292;49.600;8.746;2023-05-21T02:35:43;16.10;;;14.52;;
28547;SDS011;68292;49.600;8.746;2023-05-21T02:38:12;14.70;;;13.18;;
28547;SDS011;68292;49.600;8.746;2023-05-21T02:40:45;14.98;;;13.48;;
28547;SDS011;68292;49.600;8.746;2023-05-21T02:43:13;13.68;;;12.32;;
28547;SDS011;68292;49.600;8.746;2023-05-21T02:45:43;14.93;;;13.07;;
28547;SDS011;68292;49.600;8.746;2023-05-21T02:48:12;15.15;;;13.45;;
28547;SDS011;68292;49.600;8.746;2023-05-21T02:50:41;15.57;;;13.95;;
28547;SDS011;68292;49.600;8.746;2023-05-21T02:53:09;14.65;;;13.15;;
28547;SDS011;68292;49.600;8.746;2023-05-21T02:55:37;15.73;;;12.57;;
28547;SDS011;68292;49.600;8.746;2023-05-21T02:58:06;15.63;;;14.02;;
28547;SDS011;68292;49.600;8.746;2023-05-21T03:00:34;14.73;;;13.32;;
28547;SDS011;68292;49.600;8.746;2023-05-21T03:03:03;15.48;;;13.88;;
28547;SDS011;68292;49.600;8.746;2023-05-21T03:05:31;20.70;;;14.50;;
28547;SDS011;68292;49.600;8.746;2023-05-21T03:08:01;15.75;;;14.15;;
28547;SDS011;68292;49.600;8.746;2023-05-21T03:10:29;14.98;;;13.57;;
28547;SDS011;68292;49.600;8.746;2023-05-21T03:12:57;15.73;;;14.13;;
28547;SDS011;68292;49.600;8.746;2023-05-21T03:15:25;16.23;;;13.55;;
28547;SDS011;68292;49.600;8.746;2023-05-21T03:17:58;15.18;;;13.65;;
28547;SDS011;68292;49.600;8.746;2023-05-21T03:20:28;15.80;;;14.20;;
28547;SDS011;68292;49.600;8.746;2023-05-21T03:22:57;15.77;;;13.48;;
28547;SDS011;68292;49.600;8.746;2023-05-21T03:25:25;15.10;;;13.70;;
28547;SDS011;68292;49.600;8.746;2023-05-21T03:27:53;15.18;;;13.77;;
28547;SDS011;68292;49.600;8.746;2023-05-21T03:30:40;14.35;;;12.95;;
28547;SDS011;68292;49.600;8.746;2023-05-21T03:33:31;15.10;;;13.55;;
28547;SDS011;68292;49.600;8.746;2023-05-21T03:36:06;14.50;;;13.07;;
28547;SDS011;68292;49.600;8.746;2023-05-21T03:38:36;14.90;;;13.30;;
28547;SDS011;68292;49.600;8.746;2023-05-21T03:41:04;14.57;;;13.18;;
28547;SDS011;68292;49.600;8.746;2023-05-21T03:43:35;14.43;;;13.02;;
28547;SDS011;68292;49.600;8.746;2023-05-21T03:46:03;14.68;;;13.18;;
28547;SDS011;68292;49.600;8.746;2023-05-21T03:48:49;15.10;;;13.60;;
28547;SDS011;68292;49.600;8.746;2023-05-21T03:51:22;14.38;;;12.95;;
28547;SDS011;68292;49.600;8.746;2023-05-21T03:53:50;14.30;;;13.00;;
28547;SDS011;68292;49.600;8.746;2023-05-21T03:56:18;14.23;;;12.73;;
28547;SDS011;68292;49.600;8.746;2023-05-21T03:58:48;15.15;;;13.75;;
28547;SDS011;68292;49.600;8.746;2023-05-21T04:01:16;14.38;;;12.98;;
28547;SDS011;68292;49.600;8.746;2023-05-21T04:03:46;14.45;;;13.05;;
28547;SDS011;68292;49.600;8.746;2023-05-21T04:06:16;14.30;;;12.90;;
28547;SDS011;68292;49.600;8.746;2023-05-21T04:08:45;16.02;;;13.48;;
28547;SDS011;68292;49.600;8.746;2023-05-21T04:11:13;13.85;;;12.45;;
28547;SDS011;68292;49.600;8.746;2023-05-21T04:13:42;14.90;;;12.73;;
28547;SDS011;68292;49.600;8.746;2023-05-21T04:16:10;16.73;;;15.13;;
28547;SDS011;68292;49.600;8.746;2023-05-21T04:18:40;15.90;;;13.52;;
28547;SDS011;68292;49.600;8.746;2023-05-21T04:21:12;14.00;;;12.60;;
28547;SDS011;68292;49.600;8.746;2023-05-21T04:23:40;14.50;;;13.10;;
28547;SDS011;68292;49.600;8.746;2023-05-21T04:26:19;13.52;;;12.13;;
28547;SDS011;68292;49.600;8.746;2023-05-21T04:28:48;15.32;;;13.77;;
28547;SDS011;68292;49.600;8.746;2023-05-21T04:31:16;15.23;;;13.73;;
28547;SDS011;68292;49.600;8.746;2023-05-21T04:33:44;14.98;;;13.50;;
28547;SDS011;68292;49.600;8.746;2023-05-21T04:36:12;13.95;;;12.65;;
28547;SDS011;68292;49.600;8.746;2023-05-21T04:38:43;14.38;;;12.13;;
28547;SDS011;68292;49.600;8.746;2023-05-21T04:41:11;14.13;;;12.73;;
28547;SDS011;68292;49.600;8.746;2023-05-21T04:43:42;13.68;;;12.25;;
28547;SDS011;68292;49.600;8.746;2023-05-21T04:46:12;14.00;;;12.70;;
28547;SDS011;68292;49.600;8.746;2023-05-21T04:48:40;14.10;;;12.73;;
28547;SDS011;68292;49.600;8.746;2023-05-21T04:51:09;13.77;;;12.43;;
28547;SDS011;68292;49.600;8.746;2023-05-21T04:53:37;16.52;;;12.70;;
28547;SDS011;68292;49.600;8.746;2023-05-21T04:56:06;13.45;;;12.10;;
28547;SDS011;68292;49.600;8.746;2023-05-21T04:58:35;13.57;;;12.25;;
28547;SDS011;68292;49.600;8.746;2023-05-21T05:01:07;14.00;;;12.48;;
28547;SDS011;68292;49.600;8.746;2023-05-21T05:03:35;13.40;;;12.00;;
28547;SDS011;68292;49.600;8.746;2023-05-21T05:06:03;14.48;;;12.98;;
28547;SDS011;68292;49.600;8.746;2023-05-21T05:08:33;13.75;;;12.35;;
28547;SDS011;68292;49.600;8.746;2023-05-21T05:11:02;14.02;;;12.48;;
28547;SDS011;68292;49.600;8.746;2023-05-21T05:13:31;13.00;;;11.65;;
28547;SDS011;68292;49.600;8.746;2023-05-21T05:15:59;13.10;;;11.90;;
28547;SDS011;68292;49.600;8.746;2023-05-21T05:18:29;15.63;;;12.18;;
28547;SDS011;68292;49.600;8.746;2023-05-21T05:20:57;13.35;;;12.05;;
28547;SDS011;68292;49.600;8.746;2023-05-21T05:23:25;13.70;;;11.48;;
28547;SDS011;68292;49.600;8.746;2023-05-21T05:25:53;13.60;;;12.20;;
28547;SDS011;68292;49.600;8.746;2023-05-21T05:28:21;13.15;;;11.95;;
28547;SDS011;68292;49.600;8.746;2023-05-21T05:30:49;13.93;;;12.52;;
28547;SDS011;68292;49.600;8.746;2023-05-21T05:33:22;13.43;;;12.20;;
28547;SDS011;68292;49.600;8.746;2023-05-21T05:35:52;14.25;;;12.15;;
28547;SDS011;68292;49.600;8.746;2023-05-21T05:38:20;13.90;;;11.80;;
28547;SDS011;68292;49.600;8.746;2023-05-21T05:40:48;13.15;;;11.85;;
28547;SDS011;68292;49.600;8.746;2023-05-21T05:43:16;12.55;;;11.43;;
28547;SDS011;68292;49.600;8.746;2023-05-21T05:45:45;12.88;;;11.38;;
28547;SDS011;68292;49.600;8.746;2023-05-21T05:48:13;12.63;;;11.48;;
28547;SDS011;68292;49.600;8.746;2023-05-21T05:50:43;12.48;;;11.38;;
28547;SDS011;68292;49.600;8.746;2023-05-21T05:53:14;12.18;;;10.98;;
28547;SDS011;68292;49.600;8.746;2023-05-21T05:55:42;11.98;;;10.88;;
28547;SDS011;68292;49.600;8.746;2023-05-21T05:58:10;12.25;;;11.07;;
28547;SDS011;68292;49.600;8.746;2023-05-21T06:01:07;12.05;;;10.95;;
28547;SDS011;68292;49.600;8.746;2023-05-21T06:03:35;11.93;;;10.85;;
28547;SDS011;68292;49.600;8.746;2023-05-21T06:06:10;12.05;;;10.88;;
28547;SDS011;68292;49.600;8.746;2023-05-21T06:08:40;11.98;;;10.75;;
28547;SDS011;68292;49.600;8.746;2023-05-21T06:11:08;11.40;;;10.30;;
28547;SDS011;68292;49.600;8.746;2023-05-21T06:13:37;12.18;;;10.80;;
28547;SDS011;68292;49.600;8.746;2023-05-21T06:16:05;12.68;;;11.48;;
28547;SDS011;68292;49.600;8.746;2023-05-21T06:18:35;12.98;;;11.68;;
28547;SDS011;68292;49.600;8.746;2023-05-21T06:21:03;13.32;;;12.13;;
28547;SDS011;68292;49.600;8.746;2023-05-21T06:23:31;11.82;;;10.73;;
28547;SDS011;68292;49.600;8.746;2023-05-21T06:26:03;12.15;;;11.05;;
28547;SDS011;68292;49.600;8.746;2023-05-21T06:28:32;12.15;;;11.05;;
28547;SDS011;68292;49.600;8.746;2023-05-21T06:31:00;12.63;;;10.90;;
28547;SDS011;68292;49.600;8.746;2023-05-21T06:33:30;12.90;;;11.70;;
28547;SDS011;68292;49.600;8.746;2023-05-21T06:35:59;12.38;;;11.13;;
28547;SDS011;68292;49.600;8.746;2023-05-21T06:38:27;12.68;;;11.38;;
28547;SDS011;68292;49.600;8.746;2023-05-21T06:40:55;12.38;;;11.23;;
28547;SDS011;68292;49.600;8.746;2023-05-21T06:43:41;11.77;;;10.68;;
28547;SDS011;68292;49.600;8.746;2023-05-21T06:46:36;10.95;;;9.85;;
28547;SDS011;68292;49.600;8.746;2023-05-21T06:49:06;11.70;;;10.23;;
28547;SDS011;68292;49.600;8.746;2023-05-21T06:51:35;12.02;;;10.77;;
28547;SDS011;68292;49.600;8.746;2023-05-21T06:54:04;12.20;;;10.73;;
28547;SDS011;68292;49.600;8.746;2023-05-21T06:56:34;12.40;;;11.23;;
28547;SDS011;68292;49.600;8.746;2023-05-21T06:59:03;12.02;;;10.93;;
28547;SDS011;68292;49.600;8.746;2023-05-21T07:01:31;11.05;;;9.95;;
28547;SDS011;68292;49.600;8.746;2023-05-21T07:04:00;11.98;;;10.88;;
28547;SDS011;68292;49.600;8.746;2023-05-21T07:06:29;11.02;;;9.93;;
28547;SDS011;68292;49.600;8.746;2023-05-21T07:08:58;11.93;;;10.82;;
28547;SDS011;68292;49.600;8.746;2023-05-21T07:11:28;11.93;;;10.90;;
28547;SDS011;68292;49.600;8.746;2023-05-21T07:13:58;11.65;;;10.48;;
28547;SDS011;68292;49.600;8.746;2023-05-21T07:16:29;11.35;;;10.25;;
28547;SDS011;68292;49.600;8.746;2023-05-21T07:18:58;11.50;;;10.43;;
28547;SDS011;68292;49.600;8.746;2023-05-21T07:21:26;11.30;;;10.30;;
28547;SDS011;68292;49.600;8.746;2023-05-21T07:23:55;13.80;;;10.38;;
28547;SDS011;68292;49.600;8.746;2023-05-21T07:26:23;11.57;;;10.38;;
28547;SDS011;68292;49.600;8.746;2023-05-21T07:28:52;11.95;;;10.88;;
28547;SDS011;68292;49.600;8.746;2023-05-21T07:31:21;12.48;;;11.38;;
28547;SDS011;68292;49.600;8.746;2023-05-21T07:33:52;12.30;;;11.23;;
28547;SDS011;68292;49.600;8.746;2023-05-21T07:36:25;12.85;;;11.55;;
28547;SDS011;68292;49.600;8.746;2023-05-21T07:38:54;11.80;;;10.63;;
28547;SDS011;68292;49.600;8.746;2023-05-21T07:41:23;11.52;;;10.35;;
28547;SDS011;68292;49.600;8.746;2023-05-21T07:43:51;11.48;;;10.32;;
28547;SDS011;68292;49.600;8.746;2023-05-21T07:46:21;12.30;;;11.20;;
28547;SDS011;68292;49.600;8.746;2023-05-21T07:48:54;10.95;;;9.70;;
28547;SDS011;68292;49.600;8.746;2023-05-21T07:51:23;12.57;;;11.38;;
28547;SDS011;68292;49.600;8.746;2023-05-21T07:53:53;12.07;;;10.98;;
28547;SDS011;68292;49.600;8.746;2023-05-21T07:56:28;11.45;;;10.23;;
28547;SDS011;68292;49.600;8.746;2023-05-21T07:58:59;12.13;;;10.82;;
28547;SDS011;68292;49.600;8.746;2023-05-21T08:01:28;13.35;;;10.63;;
28547;SDS011;68292;49.600;8.746;2023-05-21T08:03:58;11.90;;;10.70;;
28547;SDS011;68292;49.600;8.746;2023-05-21T08:06:33;12.13;;;11.07;;
28547;SDS011;68292;49.600;8.746;2023-05-21T08:09:03;12.18;;;10.98;;
28547;SDS011;68292;49.600;8.746;2023-05-21T08:11:32;12.43;;;11.23;;
28547;SDS011;68292;49.600;8.746;2023-05-21T08:14:01;12.32;;;11.27;;
28547;SDS011;68292;49.600;8.746;2023-05-21T08:16:29;11.90;;;10.80;;
28547;SDS011;68292;49.600;8.746;2023-05-21T08:18:59;11.57;;;10.63;;
28547;SDS011;68292;49.600;8.746;2023-05-21T08:21:27;12.30;;;11.10;;
28547;SDS011;68292;49.600;8.746;2023-05-21T08:23:56;11.27;;;10.27;;
28547;SDS011;68292;49.600;8.746;2023-05-21T08:26:26;11.20;;;10.13;;
28547;SDS011;68292;49.600;8.746;2023-05-21T08:28:55;12.07;;;10.82;;
28547;SDS011;68292;49.600;8.746;2023-05-21T08:31:23;12.50;;;11.30;;
28547;SDS011;68292;49.600;8.746;2023-05-21T08:33:52;12.27;;;11.00;;
28547;SDS011;68292;49.600;8.746;2023-05-21T08:36:34;11.75;;;10.38;;
28547;SDS011;68292;49.600;8.746;2023-05-21T08:39:10;11.38;;;10.38;;
28547;SDS011;68292;49.600;8.746;2023-05-21T08:41:41;11.18;;;10.18;;
28547;SDS011;68292;49.600;8.746;2023-05-21T08:44:14;11.30;;;10.30;;
28547;SDS011;68292;49.600;8.746;2023-05-21T08:46:48;10.65;;;9.68;;
28547;SDS011;68292;49.600;8.746;2023-05-21T08:49:17;11.75;;;10.52;;
28547;SDS011;68292;49.600;8.746;2023-05-21T08:51:55;12.20;;;10.63;;
28547;SDS011;68292;49.600;8.746;2023-05-21T08:54:25;11.30;;;10.13;;
28547;SDS011;68292;49.600;8.746;2023-05-21T08:56:54;10.85;;;9.80;;
28547;SDS011;68292;49.600;8.746;2023-05-21T08:59:24;15.48;;;10.60;;
28547;SDS011;68292;49.600;8.746;2023-05-21T09:01:53;11.20;;;10.18;;
28547;SDS011;68292;49.600;8.746;2023-05-21T09:04:30;10.98;;;9.98;;
28547;SDS011;68292;49.600;8.746;2023-05-21T09:07:01;11.65;;;10.45;;
28547;SDS011;68292;49.600;8.746;2023-05-21T09:09:49;10.70;;;9.77;;
28547;SDS011;68292;49.600;8.746;2023-05-21T09:12:23;11.82;;;10.65;;
28547;SDS011;68292;49.600;8.746;2023-05-21T09:14:52;11.52;;;10.52;;
28547;SDS011;68292;49.600;8.746;2023-05-21T09:17:27;14.60;;;10.40;;
28547;SDS011;68292;49.600;8.746;2023-05-21T09:20:09;12.23;;;10.95;;
28547;SDS011;68292;49.600;8.746;2023-05-21T09:22:46;11.57;;;10.30;;
28547;SDS011;68292;49.600;8.746;2023-05-21T09:25:16;11.00;;;9.90;;
28547;SDS011;68292;49.600;8.746;2023-05-21T09:27:47;11.20;;;10.15;;
28547;SDS011;68292;49.600;8.746;2023-05-21T09:30:17;10.60;;;9.65;;
28547;SDS011;68292;49.600;8.746;2023-05-21T09:32:52;11.00;;;9.98;;
28547;SDS011;68292;49.600;8.746;2023-05-21T09:35:23;10.60;;;9.60;;
28547;SDS011;68292;49.600;8.746;2023-05-21T09:37:53;11.27;;;9.57;;
28547;SDS011;68292;49.600;8.746;2023-05-21T09:40:22;10.25;;;9.35;;
28547;SDS011;68292;49.600;8.746;2023-05-21T09:42:51;9.38;;;8.57;;
28547;SDS011;68292;49.600;8.746;2023-05-21T09:45:22;9.88;;;8.85;;
28547;SDS011;68292;49.600;8.746;2023-05-21T09:47:54;11.32;;;8.73;;
28547;SDS011;68292;49.600;8.746;2023-05-21T09:50:23;9.70;;;8.70;;
28547;SDS011;68292;49.600;8.746;2023-05-21T09:52:54;9.40;;;8.65;;
28547;SDS011;68292;49.600;8.746;2023-05-21T09:55:23;8.30;;;7.65;;
28547;SDS011;68292;49.600;8.746;2023-05-21T09:57:53;10.60;;;9.60;;
28547;SDS011;68292;49.600;8.746;2023-05-21T10:00:21;8.82;;;8.13;;
28547;SDS011;68292;49.600;8.746;2023-05-21T10:02:52;7.40;;;6.80;;
28547;SDS011;68292;49.600;8.746;2023-05-21T10:05:23;8.95;;;8.05;;
28547;SDS011;68292;49.600;8.746;2023-05-21T10:07:58;9.20;;;8.50;;
28547;SDS011;68292;49.600;8.746;2023-05-21T10:10:28;9.38;;;8.57;;
28547;SDS011;68292;49.600;8.746;2023-05-21T10:12:58;8.13;;;7.43;;
28547;SDS011;68292;49.600;8.746;2023-05-21T10:15:34;8.25;;;7.55;;
28547;SDS011;68292;49.600;8.746;2023-05-21T10:18:05;9.48;;;8.75;;
28547;SDS011;68292;49.600;8.746;2023-05-21T10:20:35;9.25;;;8.45;;
28547;SDS011;68292;49.600;8.746;2023-05-21T10:23:06;8.10;;;7.45;;
28547;SDS011;68292;49.600;8.746;2023-05-21T10:25:34;8.95;;;8.15;;
28547;SDS011;68292;49.600;8.746;2023-05-21T10:28:03;9.45;;;8.68;;
28547;SDS011;68292;49.600;8.746;2023-05-21T10:30:33;8.85;;;8.15;;
28547;SDS011;68292;49.600;8.746;2023-05-21T10:33:03;9.02;;;8.32;;
28547;SDS011;68292;49.600;8.746;2023-05-21T10:35:32;8.95;;;8.25;;
28547;SDS011;68292;49.600;8.746;2023-05-21T10:38:01;10.05;;;9.20;;
28547;SDS011;68292;49.600;8.746;2023-05-21T10:40:32;10.32;;;9.43;;
28547;SDS011;68292;49.600;8.746;2023-05-21T10:43:07;9.80;;;8.90;;
28547;SDS011;68292;49.600;8.746;2023-05-21T10:46:18;8.88;;;8.07;;
28547;SDS011;68292;49.600;8.746;2023-05-21T10:49:25;9.20;;;6.95;;
28547;SDS011;68292;49.600;8.746;2023-05-21T10:52:18;9.18;;;8.48;;
28547;SDS011;68292;49.600;8.746;2023-05-21T10:55:08;8.85;;;8.10;;
28547;SDS011;68292;49.600;8.746;2023-05-21T10:58:07;8.63;;;7.93;;
28547;SDS011;68292;49.600;8.746;2023-05-21T11:01:11;10.05;;;9.05;;
28547;SDS011;68292;49.600;8.746;2023-05-21T11:03:41;9.82;;;9.00;;
28547;SDS011;68292;49.600;8.746;2023-05-21T11:06:10;9.25;;;8.52;;
28547;SDS011;68292;49.600;8.746;2023-05-21T11:08:38;10.00;;;9.15;;
28547;SDS011;68292;49.600;8.746;2023-05-21T11:11:14;9.32;;;8.52;;
28547;SDS011;68292;49.600;8.746;2023-05-21T11:17:08;8.95;;;8.15;;
28547;SDS011;68292;49.600;8.746;2023-05-21T11:19:39;9.85;;;9.05;;
28547;SDS011;68292;49.600;8.746;2023-05-21T11:22:18;10.00;;;9.10;;
28547;SDS011;68292;49.600;8.746;2023-05-21T11:24:49;10.70;;;9.70;;
28547;SDS011;68292;49.600;8.746;2023-05-21T11:27:29;11.32;;;10.32;;
28547;SDS011;68292;49.600;8.746;2023-05-21T11:30:03;10.00;;;9.13;;
28547;SDS011;68292;49.600;8.746;2023-05-21T11:32:36;10.10;;;9.07;;
28547;SDS011;68292;49.600;8.746;2023-05-21T11:35:06;9.18;;;8.38;;
28547;SDS011;68292;49.600;8.746;2023-05-21T11:37:35;9.07;;;8.27;;
28547;SDS011;68292;49.600;8.746;2023-05-21T11:40:16;10.10;;;9.10;;
28547;SDS011;68292;49.600;8.746;2023-05-21T11:42:55;9.60;;;8.27;;
28547;SDS011;68292;49.600;8.746;2023-05-21T11:45:28;9.98;;;8.45;;
28547;SDS011;68292;49.600;8.746;2023-05-21T11:47:57;10.70;;;9.75;;
28547;SDS011;68292;49.600;8.746;2023-05-21T11:50:26;10.15;;;9.18;;
28547;SDS011;68292;49.600;8.746;2023-05-21T11:52:59;10.00;;;9.10;;
28547;SDS011;68292;49.600;8.746;2023-05-21T11:55:27;9.48;;;8.68;;
28547;SDS011;68292;49.600;8.746;2023-05-21T11:57:55;10.25;;;9.35;;
28547;SDS011;68292;49.600;8.746;2023-05-21T12:00:24;9.95;;;9.05;;
28547;SDS011;68292;49.600;8.746;2023-05-21T12:02:57;9.93;;;9.05;;
28547;SDS011;68292;49.600;8.746;2023-05-21T12:05:25;10.35;;;9.52;;
28547;SDS011;68292;49.600;8.746;2023-05-21T12:07:53;10.73;;;9.70;;
28547;SDS011;68292;49.600;8.746;2023-05-21T12:10:21;10.60;;;9.60;;
28547;SDS011;68292;49.600;8.746;2023-05-21T12:12:50;11.57;;;10.55;;
28547;SDS011;68292;49.600;8.746;2023-05-21T12:15:23;10.48;;;9.60;;
28547;SDS011;68292;49.600;8.746;2023-05-21T12:17:53;10.63;;;9.70;;
28547;SDS011;68292;49.600;8.746;2023-05-21T12:20:25;10.30;;;9.40;;
28547;SDS011;68292;49.600;8.746;2023-05-21T12:22:55;10.38;;;9.38;;
28547;SDS011;68292;49.600;8.746;2023-05-21T12:25:25;10.93;;;10.00;;
28547;SDS011;68292;49.600;8.746;2023-05-21T12:27:53;11.02;;;9.95;;
28547;SDS011;68292;49.600;8.746;2023-05-21T12:30:24;9.98;;;9.07;;
28547;SDS011;68292;49.600;8.746;2023-05-21T12:32:56;10.27;;;9.18;;
28547;SDS011;68292;49.600;8.746;2023-05-21T12:35:28;10.38;;;9.40;;
28547;SDS011;68292;49.600;8.746;2023-05-21T12:37:59;9.55;;;8.75;;
28547;SDS011;68292;49.600;8.746;2023-05-21T12:40:34;9.40;;;8.50;;
28547;SDS011;68292;49.600;8.746;2023-05-21T12:43:04;9.55;;;8.65;;
28547;SDS011;68292;49.600;8.746;2023-05-21T12:45:33;10.85;;;9.82;;
28547;SDS011;68292;49.600;8.746;2023-05-21T12:48:04;8.52;;;7.78;;
28547;SDS011;68292;49.600;8.746;2023-05-21T12:50:37;9.63;;;8.65;;
28547;SDS011;68292;49.600;8.746;2023-05-21T12:53:07;9.45;;;8.50;;
28547;SDS011;68292;49.600;8.746;2023-05-21T12:55:36;9.50;;;8.75;;
28547;SDS011;68292;49.600;8.746;2023-05-21T12:58:06;8.95;;;8.15;;
28547;SDS011;68292;49.600;8.746;2023-05-21T13:00:34;9.02;;;8.10;;
28547;SDS011;68292;49.600;8.746;2023-05-21T13:03:03;9.18;;;8.38;;
28547;SDS011;68292;49.600;8.746;2023-05-21T13:05:33;9.25;;;8.35;;
28547;SDS011;68292;49.600;8.746;2023-05-21T13:08:06;8.40;;;7.63;;
28547;SDS011;68292;49.600;8.746;2023-05-21T13:10:35;8.88;;;8.07;;
28547;SDS011;68292;49.600;8.746;2023-05-21T13:13:04;8.55;;;7.78;;
28547;SDS011;68292;49.600;8.746;2023-05-21T13:15:32;8.75;;;7.70;;
28547;SDS011;68292;49.600;8.746;2023-05-21T13:18:01;9.20;;;8.40;;
28547;SDS011;68292;49.600;8.746;2023-05-21T13:20:29;9.13;;;8.32;;
28547;SDS011;68292;49.600;8.746;2023-05-21T13:22:58;10.20;;;9.25;;
28547;SDS011;68292;49.600;8.746;2023-05-21T13:25:31;9.75;;;8.85;;
28547;SDS011;68292;49.600;8.746;2023-05-21T13:28:00;9.35;;;8.48;;
28547;SDS011;68292;49.600;8.746;2023-05-21T13:30:30;11.88;;;8.90;;
28547;SDS011;68292;49.600;8.746;2023-05-21T13:32:59;10.07;;;9.07;;
28547;SDS011;68292;49.600;8.746;2023-05-21T13:35:27;10.85;;;8.65;;
28547;SDS011;68292;49.600;8.746;2023-05-21T13:37:58;9.18;;;8.48;;
28547;SDS011;68292;49.600;8.746;2023-05-21T13:40:26;8.73;;;8.02;;
28547;SDS011;68292;49.600;8.746;2023-05-21T13:42:55;9.40;;;8.60;;
28547;SDS011;68292;49.600;8.746;2023-05-21T13:45:23;9.07;;;8.27;;
28547;SDS011;68292;49.600;8.746;2023-05-21T13:47:54;9.13;;;8.32;;
28547;SDS011;68292;49.600;8.746;2023-05-21T13:50:22;8.75;;;7.88;;
28547;SDS011;68292;49.600;8.746;2023-05-21T13:52:51;8.65;;;7.95;;
28547;SDS011;68292;49.600;8.746;2023-05-21T13:55:20;8.75;;;7.95;;
28547;SDS011;68292;49.600;8.746;2023-05-21T13:57:49;8.70;;;8.00;;
28547;SDS011;68292;49.600;8.746;2023-05-21T14:00:17;8.63;;;7.72;;
28547;SDS011;68292;49.600;8.746;2023-05-21T14:02:45;8.68;;;7.97;;
28547;SDS011;68292;49.600;8.746;2023-05-21T14:05:13;8.90;;;8.10;;
28547;SDS011;68292;49.600;8.746;2023-05-21T14:07:42;9.18;;;8.27;;
28547;SDS011;68292;49.600;8.746;2023-05-21T14:10:12;9.25;;;8.45;;
28547;SDS011;68292;49.600;8.746;2023-05-21T14:12:42;9.10;;;8.25;;
28547;SDS011;68292;49.600;8.746;2023-05-21T14:15:12;9.20;;;7.68;;
28547;SDS011;68292;49.600;8.746;2023-05-21T14:17:40;8.88;;;8.07;;
28547;SDS011;68292;49.600;8.746;2023-05-21T14:20:08;8.88;;;8.10;;
28547;SDS011;68292;49.600;8.746;2023-05-21T14:22:38;8.55;;;7.75;;
28547;SDS011;68292;49.600;8.746;2023-05-21T14:25:06;8.40;;;7.70;;
28547;SDS011;68292;49.600;8.746;2023-05-21T14:27:35;8.35;;;7.65;;
28547;SDS011;68292;49.600;8.746;2023-05-21T14:30:06;8.90;;;8.20;;
28547;SDS011;68292;49.600;8.746;2023-05-21T14:32:35;9.07;;;8.23;;
28547;SDS011;68292;49.600;8.746;2023-05-21T14:35:03;8.35;;;7.65;;
28547;SDS011;68292;49.600;8.746;2023-05-21T14:37:32;9.02;;;8.20;;
28547;SDS011;68292;49.600;8.746;2023-05-21T14:40:00;9.98;;;9.10;;
28547;SDS011;68292;49.600;8.746;2023-05-21T14:42:30;9.60;;;8.80;;
28547;SDS011;68292;49.600;8.746;2023-05-21T14:44:58;9.63;;;8.77;;
28547;SDS011;68292;49.600;8.746;2023-05-21T14:47:44;9.70;;;8.55;;
28547;SDS011;68292;49.600;8.746;2023-05-21T14:50:14;9.30;;;8.50;;
28547;SDS011;68292;49.600;8.746;2023-05-21T14:52:44;9.77;;;8.98;;
28547;SDS011;68292;49.600;8.746;2023-05-21T14:55:12;9.50;;;8.57;;